Time;durP1;ratioP1;P1;durP2;ratioP2;P2;SDS_P1;SDS_P2;PMS_P1;PMS_P2;Temp;Humidity;BMP_temperature;BMP_pressure;BME280_temperature;BME280_humidity;BME280_pressure;Samples;Min_cycle;Max_cycle;Signal;HPM_P1;HPM_P2
2023/05/10 00:01:14;;;;;;;7.63;5.57;;;22.60;56.60;;;;;;5071370;28;20032;-65
2023/05/10 00:03:40;;;;;;;7.75;5.72;;;22.70;56.70;;;;;;5070918;28;20041;-65
2023/05/10 00:06:06;;;;;;;15.88;5.43;;;22.60;56.50;;;;;;5071140;28;20040;-65
2023/05/10 00:08:32;;;;;;;7.18;5.15;;;22.60;56.40;;;;;;5071185;28;20543;-65
2023/05/10 00:10:58;;;;;;;8.20;5.68;;;22.70;56.50;;;;;;5071252;28;20146;-65
2023/05/10 00:13:24;;;;;;;8.27;5.25;;;22.60;56.40;;;;;;5070590;28;20115;-65
2023/05/10 00:15:50;;;;;;;8.48;4.82;;;22.70;56.50;;;;;;5072539;28;20033;-65
2023/05/10 00:18:16;;;;;;;7.93;5.43;;;22.60;56.40;;;;;;5070832;28;20559;-65
2023/05/10 00:20:42;;;;;;;7.97;5.63;;;22.50;56.40;;;;;;5070938;28;20071;-65
2023/05/10 00:23:08;;;;;;;10.18;5.68;;;22.60;56.40;;;;;;5070855;28;20488;-65
2023/05/10 00:25:34;;;;;;;7.40;5.28;;;22.70;56.40;;;;;;5070939;28;20040;-65
2023/05/10 00:28:01;;;;;;;10.23;6.15;;;22.60;56.20;;;;;;5073694;28;20536;-65
2023/05/10 00:30:27;;;;;;;7.95;5.53;;;22.60;56.20;;;;;;5072677;28;20070;-65
2023/05/10 00:32:54;;;;;;;8.85;5.68;;;22.50;56.30;;;;;;5076309;28;20039;-65
2023/05/10 00:35:21;;;;;;;6.43;4.68;;;22.60;56.30;;;;;;5093472;28;20031;-65
2023/05/10 00:37:47;;;;;;;7.65;5.32;;;22.50;56.30;;;;;;5093776;28;20050;-65
2023/05/10 00:40:14;;;;;;;7.68;5.38;;;22.40;56.20;;;;;;5112830;28;20040;-65
2023/05/10 00:42:43;;;;;;;8.30;5.30;;;22.50;56.40;;;;;;5112812;28;20147;-65
2023/05/10 00:45:09;;;;;;;13.85;6.05;;;22.40;56.40;;;;;;5078821;28;20068;-65
2023/05/10 00:47:35;;;;;;;11.90;5.85;;;22.50;56.40;;;;;;5095573;28;20507;-65
2023/05/10 00:50:02;;;;;;;8.77;5.30;;;22.40;56.30;;;;;;5096042;28;20433;-65
2023/05/10 00:52:29;;;;;;;9.13;5.80;;;22.30;56.30;;;;;;5074758;28;20499;-65
2023/05/10 00:54:55;;;;;;;10.13;5.22;;;22.40;56.40;;;;;;5092441;28;20073;-65
2023/05/10 00:57:22;;;;;;;6.97;4.95;;;22.40;56.50;;;;;;5075286;28;20055;-65
2023/05/10 00:59:48;;;;;;;6.30;5.13;;;22.30;56.40;;;;;;5092281;28;20048;-65
2023/05/10 01:02:15;;;;;;;6.78;4.72;;;22.40;56.30;;;;;;5075116;28;20044;-66
2023/05/10 01:04:41;;;;;;;7.50;4.88;;;22.40;56.20;;;;;;5091942;28;20114;-65
2023/05/10 01:07:07;;;;;;;8.82;5.53;;;22.40;56.30;;;;;;5075321;28;20479;-65
2023/05/10 01:09:33;;;;;;;6.13;4.78;;;22.30;56.20;;;;;;5075192;28;20047;-65
2023/05/10 01:12:01;;;;;;;6.38;4.68;;;22.40;56.20;;;;;;5058608;28;20049;-65
2023/05/10 01:14:29;;;;;;;8.48;4.95;;;22.40;56.20;;;;;;5055078;28;20036;-65
2023/05/10 01:16:56;;;;;;;8.80;4.80;;;22.40;56.10;;;;;;5054902;28;20040;-65
2023/05/10 01:19:30;;;;;;;6.68;4.93;;;22.40;56.10;;;;;;5071206;28;20143;-65
2023/05/10 01:22:02;;;;;;;7.57;4.82;;;22.40;56.10;;;;;;5055147;28;20048;-65
2023/05/10 01:24:39;;;;;;;7.35;5.05;;;22.40;56.10;;;;;;5091077;28;20121;-66
2023/05/10 01:27:21;;;;;;;6.85;5.10;;;22.40;56.00;;;;;;5093334;28;20385;-65
2023/05/10 01:30:17;;;;;;;6.30;4.57;;;22.40;56.00;;;;;;5093869;28;20028;-65
2023/05/10 01:32:50;;;;;;;11.43;5.18;;;22.40;56.00;;;;;;5092596;28;20376;-65
2023/05/10 01:35:38;;;;;;;9.20;5.72;;;22.30;56.10;;;;;;5092929;28;20055;-65
2023/05/10 01:38:18;;;;;;;8.07;5.35;;;22.50;56.10;;;;;;5092620;28;20035;-65
2023/05/10 01:40:57;;;;;;;12.65;5.85;;;22.30;56.10;;;;;;5094029;28;20428;-65
2023/05/10 01:43:28;;;;;;;5.80;4.72;;;22.30;56.10;;;;;;5092959;28;20040;-65
2023/05/10 01:46:14;;;;;;;10.52;4.55;;;22.20;56.00;;;;;;5092912;28;20039;-64
2023/05/10 01:48:47;;;;;;;10.98;5.38;;;22.30;56.20;;;;;;5093874;28;20028;-64
2023/05/10 01:51:20;;;;;;;6.43;5.22;;;22.30;56.20;;;;;;5075853;28;20506;-66
2023/05/10 01:53:48;;;;;;;7.45;4.70;;;22.10;56.00;;;;;;5093637;28;20028;-66
2023/05/10 01:56:16;;;;;;;12.30;5.20;;;22.10;56.10;;;;;;5092583;28;20036;-65
2023/05/10 01:58:47;;;;;;;5.32;4.57;;;22.10;56.10;;;;;;5092477;28;20089;-66
2023/05/10 02:01:14;;;;;;;6.28;4.75;;;22.10;56.10;;;;;;5092480;28;20380;-66
2023/05/10 02:03:42;;;;;;;10.18;5.63;;;22.10;56.10;;;;;;5092002;28;20210;-65
2023/05/10 02:06:10;;;;;;;8.20;5.50;;;22.20;56.00;;;;;;5092371;28;20047;-65
2023/05/10 02:08:38;;;;;;;9.77;5.60;;;22.20;56.00;;;;;;5093761;28;20112;-66
2023/05/10 02:11:05;;;;;;;8.57;5.25;;;22.10;55.90;;;;;;5092203;28;20032;-65
2023/05/10 02:13:35;;;;;;;7.85;5.25;;;22.20;55.90;;;;;;5091857;28;20119;-65
2023/05/10 02:16:03;;;;;;;9.85;5.32;;;22.20;55.90;;;;;;5092180;28;20059;-65
2023/05/10 02:18:31;;;;;;;5.70;4.97;;;22.20;55.90;;;;;;5090053;28;20523;-65
2023/05/10 02:20:58;;;;;;;6.32;5.28;;;22.20;55.80;;;;;;5091977;28;20032;-65
2023/05/10 02:23:26;;;;;;;7.60;5.32;;;22.20;55.80;;;;;;5087309;28;20059;-65
2023/05/10 02:25:54;;;;;;;6.80;5.53;;;22.20;55.70;;;;;;5072871;28;20043;-65
2023/05/10 02:28:23;;;;;;;8.32;5.28;;;22.20;55.70;;;;;;5077053;28;20040;-65
2023/05/10 02:30:50;;;;;;;10.02;5.78;;;22.20;55.70;;;;;;5092995;28;20054;-66
2023/05/10 02:33:17;;;;;;;8.00;5.72;;;22.30;55.90;;;;;;5091594;28;20040;-65
2023/05/10 02:35:46;;;;;;;6.35;5.10;;;22.10;55.80;;;;;;5091721;28;20388;-65
2023/05/10 02:38:14;;;;;;;7.82;5.22;;;22.00;55.80;;;;;;5091674;28;20539;-65
2023/05/10 02:40:42;;;;;;;7.85;5.53;;;22.10;55.80;;;;;;5092547;28;20028;-65
2023/05/10 02:43:14;;;;;;;8.80;5.72;;;22.10;55.90;;;;;;5074758;28;20051;-65
2023/05/10 02:45:41;;;;;;;9.30;5.35;;;22.00;55.80;;;;;;5091372;28;20036;-65
2023/05/10 02:48:09;;;;;;;8.13;5.50;;;22.00;55.80;;;;;;5092575;28;20778;-66
2023/05/10 02:50:36;;;;;;;6.78;5.05;;;22.00;55.80;;;;;;5090915;28;20032;-64
2023/05/10 02:53:16;;;;;;;7.78;6.10;;;22.00;55.80;;;;;;5092008;28;20033;-66
2023/05/10 02:55:49;;;;;;;9.13;5.30;;;22.00;55.80;;;;;;5091127;28;20036;-65
2023/05/10 02:58:15;;;;;;;8.35;5.65;;;21.90;56.00;;;;;;5092533;28;20437;-65
2023/05/10 03:00:41;;;;;;;9.05;5.63;;;22.00;56.10;;;;;;5073870;28;20040;-65
2023/05/10 03:03:07;;;;;;;10.70;7.00;;;22.00;56.00;;;;;;5074060;28;20368;-65
2023/05/10 03:05:33;;;;;;;10.18;6.15;;;21.90;55.90;;;;;;5090835;28;20040;-65
2023/05/10 03:08:04;;;;;;;10.20;5.28;;;21.90;55.90;;;;;;5091152;28;20116;-65
2023/05/10 03:10:32;;;;;;;7.55;5.65;;;22.10;55.80;;;;;;5073729;28;20036;-65
2023/05/10 03:13:29;;;;;;;6.53;5.72;;;22.00;55.70;;;;;;5092241;28;20040;-65
2023/05/10 03:16:02;;;;;;;11.68;5.35;;;22.10;55.70;;;;;;5090770;28;20061;-65
2023/05/10 03:18:41;;;;;;;8.65;5.20;;;22.00;55.50;;;;;;5090775;28;20528;-65
2023/05/10 03:21:12;;;;;;;8.68;5.88;;;21.90;55.60;;;;;;5089069;28;20051;-65
2023/05/10 03:23:45;;;;;;;8.38;4.95;;;22.10;55.60;;;;;;5089311;28;20384;-65
2023/05/10 03:26:20;;;;;;;6.72;5.25;;;22.00;55.30;;;;;;5089471;28;20190;-65
2023/05/10 03:28:48;;;;;;;9.45;6.00;;;22.10;55.40;;;;;;5072612;28;20111;-65
2023/05/10 03:31:14;;;;;;;7.13;5.47;;;22.00;55.30;;;;;;5072470;28;20051;-65
2023/05/10 03:33:51;;;;;;;8.52;5.70;;;22.00;55.30;;;;;;5089578;28;20036;-66
2023/05/10 03:36:22;;;;;;;8.68;5.72;;;22.10;55.30;;;;;;5089518;28;20080;-65
2023/05/10 03:38:48;;;;;;;9.38;5.45;;;22.10;55.30;;;;;;5089269;28;20127;-65
2023/05/10 03:41:15;;;;;;;10.00;5.97;;;22.10;55.10;;;;;;5072204;28;20044;-65
2023/05/10 03:43:41;;;;;;;8.25;5.15;;;22.10;55.10;;;;;;5109276;28;20046;-65
2023/05/10 03:46:07;;;;;;;10.05;5.95;;;22.20;55.20;;;;;;5109308;28;20044;-65
2023/05/10 03:48:34;;;;;;;8.23;5.65;;;22.00;55.10;;;;;;5109686;28;20044;-65
2023/05/10 03:51:00;;;;;;;11.48;6.50;;;22.00;55.10;;;;;;5092318;28;20581;-65
2023/05/10 03:53:26;;;;;;;9.57;6.15;;;22.10;55.20;;;;;;5092519;28;20032;-65
2023/05/10 03:55:52;;;;;;;8.93;5.30;;;22.00;55.10;;;;;;5109241;28;20040;-65
2023/05/10 03:58:19;;;;;;;8.20;6.20;;;22.10;55.40;;;;;;5092227;28;20467;-66
2023/05/10 04:00:45;;;;;;;8.25;5.90;;;22.10;55.10;;;;;;5092181;28;20039;-64
2023/05/10 04:03:13;;;;;;;9.30;5.70;;;22.10;54.90;;;;;;5109210;28;20049;-65
2023/05/10 04:05:39;;;;;;;9.68;6.15;;;22.20;54.70;;;;;;5109098;28;20096;-66
2023/05/10 04:08:06;;;;;;;11.90;6.32;;;22.20;54.50;;;;;;5075518;28;20146;-65
2023/05/10 04:10:32;;;;;;;9.40;6.10;;;22.40;54.40;;;;;;5092120;28;20058;-66
2023/05/10 04:12:58;;;;;;;12.38;5.38;;;22.50;54.50;;;;;;5105807;28;20097;-66
2023/05/10 04:15:24;;;;;;;11.13;5.90;;;22.60;54.60;;;;;;5109256;28;20056;-70
2023/05/10 04:17:50;;;;;;;7.93;5.35;;;22.50;56.10;;;;;;5088231;28;20048;-71
2023/05/10 04:20:17;;;;;;;10.25;5.82;;;22.80;58.70;;;;;;5071379;28;20560;-70
2023/05/10 04:22:43;;;;;;;8.10;5.70;;;23.00;60.80;;;;;;5076329;28;20098;-70
2023/05/10 04:25:09;;;;;;;9.57;7.55;;;23.20;58.40;;;;;;5068011;28;20424;-71
2023/05/10 04:27:35;;;;;;;14.40;9.15;;;23.30;56.10;;;;;;5068555;28;20540;-70
2023/05/10 04:30:03;;;;;;;14.35;7.55;;;23.20;54.30;;;;;;5068320;28;20040;-65
2023/05/10 04:32:31;;;;;;;13.15;7.03;;;23.30;53.10;;;;;;5068439;28;20504;-65
2023/05/10 04:34:57;;;;;;;8.63;6.65;;;23.10;52.30;;;;;;5068382;28;20032;-66
2023/05/10 04:37:23;;;;;;;12.70;6.80;;;23.00;52.30;;;;;;5068440;28;20048;-65
2023/05/10 04:39:49;;;;;;;11.43;6.90;;;22.90;52.40;;;;;;5051477;28;20468;-63
2023/05/10 04:42:15;;;;;;;11.35;7.03;;;22.90;52.50;;;;;;5068304;28;20070;-64
2023/05/10 04:44:41;;;;;;;10.88;6.43;;;22.80;53.00;;;;;;5068330;28;20487;-65
2023/05/10 04:47:07;;;;;;;10.10;6.25;;;22.80;54.00;;;;;;5068220;28;20048;-65
2023/05/10 04:49:33;;;;;;;13.00;6.32;;;22.70;54.50;;;;;;5086454;28;20047;-65
2023/05/10 04:51:59;;;;;;;10.52;7.88;;;22.70;55.10;;;;;;5090722;28;20039;-64
2023/05/10 04:54:25;;;;;;;10.07;5.55;;;22.70;53.20;;;;;;5091122;28;20476;-64
2023/05/10 04:56:51;;;;;;;6.43;4.32;;;22.60;51.10;;;;;;5090756;28;20124;-65
2023/05/10 04:59:17;;;;;;;7.90;4.60;;;22.70;50.50;;;;;;5108531;28;20169;-65
2023/05/10 05:01:43;;;;;;;6.93;5.00;;;22.70;49.60;;;;;;5108536;28;20047;-64
2023/05/10 05:04:09;;;;;;;9.90;5.85;;;22.70;48.90;;;;;;5091699;28;20150;-65
2023/05/10 05:06:35;;;;;;;9.57;5.55;;;22.80;49.70;;;;;;5108839;28;20170;-64
2023/05/10 05:09:01;;;;;;;11.25;5.63;;;22.80;49.80;;;;;;5108481;28;20039;-65
2023/05/10 05:11:27;;;;;;;10.95;6.03;;;22.80;51.70;;;;;;5108756;28;20063;-63
2023/05/10 05:13:53;;;;;;;9.60;6.55;;;23.00;53.40;;;;;;5091674;28;20076;-63
2023/05/10 05:16:19;;;;;;;9.65;6.20;;;22.90;51.80;;;;;;5108662;28;20554;-64
2023/05/10 05:18:45;;;;;;;9.23;6.43;;;22.90;50.60;;;;;;5111989;28;20043;-65
2023/05/10 05:21:17;;;;;;;14.30;6.88;;;22.90;52.70;;;;;;5112171;28;20134;-63
2023/05/10 05:23:43;;;;;;;9.57;6.40;;;22.70;50.80;;;;;;5112139;28;20032;-64
2023/05/10 05:26:10;;;;;;;11.77;6.55;;;23.00;51.40;;;;;;5112232;28;20048;-64
2023/05/10 05:28:39;;;;;;;11.98;6.05;;;23.00;52.50;;;;;;5112167;28;20031;-64
2023/05/10 05:31:08;;;;;;;12.82;6.20;;;23.00;52.40;;;;;;5097260;28;20121;-63
2023/05/10 05:33:35;;;;;;;9.60;6.50;;;23.00;51.20;;;;;;5094334;28;20032;-64
2023/05/10 05:36:02;;;;;;;9.32;7.03;;;23.00;50.20;;;;;;5094194;28;20399;-64
2023/05/10 05:38:28;;;;;;;9.07;6.13;;;22.90;50.10;;;;;;5094107;28;20028;-63
2023/05/10 05:40:54;;;;;;;8.68;5.40;;;22.90;49.10;;;;;;5094136;28;20036;-65
2023/05/10 05:43:20;;;;;;;9.60;5.57;;;23.00;55.30;;;;;;5092904;28;20402;-65
2023/05/10 05:45:46;;;;;;;10.45;5.88;;;23.10;55.70;;;;;;5093970;28;20424;-66
2023/05/10 05:48:12;;;;;;;10.57;6.00;;;23.30;55.70;;;;;;5094042;28;20047;-67
2023/05/10 05:50:38;;;;;;;10.70;5.88;;;23.20;55.40;;;;;;5093678;28;20062;-64
2023/05/10 05:53:04;;;;;;;11.13;6.57;;;23.20;56.10;;;;;;5094143;28;20448;-64
2023/05/10 05:55:31;;;;;;;7.45;5.82;;;23.40;57.40;;;;;;5092165;28;20119;-65
2023/05/10 05:57:58;;;;;;;9.90;4.90;;;23.30;57.50;;;;;;5093907;28;20040;-64
2023/05/10 06:00:24;;;;;;;9.30;5.00;;;23.40;57.10;;;;;;5093929;28;20032;-65
2023/05/10 06:02:50;;;;;;;9.73;4.50;;;23.40;56.90;;;;;;5093432;28;20040;-66
2023/05/10 06:05:16;;;;;;;13.18;5.53;;;23.50;56.50;;;;;;5093514;28;20044;-65
2023/05/10 06:07:42;;;;;;;13.50;4.53;;;23.50;55.60;;;;;;5091795;28;20073;-65
2023/05/10 06:10:09;;;;;;;7.10;4.07;;;23.60;54.80;;;;;;5078292;28;20033;-66
2023/05/10 06:12:35;;;;;;;9.70;5.10;;;23.60;53.90;;;;;;5073054;28;20499;-64
2023/05/10 06:15:02;;;;;;;11.60;5.03;;;23.60;53.50;;;;;;5073056;28;20131;-63
2023/05/10 06:17:29;;;;;;;10.45;5.18;;;23.60;52.90;;;;;;5071643;28;20112;-64
2023/05/10 06:19:56;;;;;;;7.80;4.40;;;23.60;52.70;;;;;;5073334;28;20488;-64
2023/05/10 06:22:22;;;;;;;12.48;4.15;;;23.70;52.50;;;;;;5073238;28;20039;-65
2023/05/10 06:24:49;;;;;;;10.60;4.05;;;23.60;52.30;;;;;;5072828;28;20165;-65
2023/05/10 06:27:15;;;;;;;7.43;5.53;;;23.80;52.20;;;;;;5089158;28;20036;-65
2023/05/10 06:29:41;;;;;;;8.52;5.88;;;23.70;51.60;;;;;;5092779;28;20047;-65
2023/05/10 06:32:07;;;;;;;9.45;5.65;;;23.70;50.80;;;;;;5093163;28;20068;-64
2023/05/10 06:34:34;;;;;;;9.43;4.82;;;23.60;50.80;;;;;;5092574;28;20115;-65
2023/05/10 06:37:00;;;;;;;8.57;5.38;;;23.60;52.00;;;;;;5092934;28;20086;-64
2023/05/10 06:39:26;;;;;;;10.60;4.40;;;23.70;52.30;;;;;;5089409;28;20039;-65
2023/05/10 06:41:52;;;;;;;6.13;3.83;;;23.70;52.50;;;;;;5083388;28;20043;-65
2023/05/10 06:44:19;;;;;;;5.32;3.75;;;23.70;52.60;;;;;;5091316;28;20032;-65
2023/05/10 06:46:45;;;;;;;7.05;4.78;;;23.70;52.60;;;;;;5092928;28;20043;-65
2023/05/10 06:49:10;;;;;;;8.40;3.50;;;23.70;52.60;;;;;;5075415;28;20100;-66
2023/05/10 06:51:37;;;;;;;6.22;2.60;;;23.80;52.60;;;;;;5071913;28;20040;-65
2023/05/10 06:54:03;;;;;;;6.57;4.07;;;23.90;52.60;;;;;;5072283;28;20484;-64
2023/05/10 06:56:29;;;;;;;7.15;3.97;;;24.00;52.50;;;;;;5077592;28;20024;-65
2023/05/10 06:58:55;;;;;;;7.03;4.47;;;24.00;52.50;;;;;;5092767;28;20034;-65
2023/05/10 07:01:21;;;;;;;5.72;3.75;;;23.80;52.40;;;;;;5092204;28;20032;-66
2023/05/10 07:03:47;;;;;;;7.30;4.18;;;23.80;52.20;;;;;;5092443;28;20051;-65
2023/05/10 07:06:13;;;;;;;5.03;3.65;;;23.90;52.20;;;;;;5092240;28;20480;-66
2023/05/10 07:08:39;;;;;;;9.75;4.75;;;23.90;52.10;;;;;;5092432;28;20028;-65
2023/05/10 07:11:12;;;;;;;4.97;4.03;;;24.00;52.00;;;;;;5092243;28;20036;-65
2023/05/10 07:13:41;;;;;;;7.05;3.63;;;23.90;52.10;;;;;;5084480;28;20387;-65
2023/05/10 07:16:07;;;;;;;7.90;4.13;;;23.90;52.60;;;;;;5072104;28;20112;-65
2023/05/10 07:18:33;;;;;;;6.20;3.05;;;23.90;53.10;;;;;;5071552;28;20508;-65
2023/05/10 07:20:59;;;;;;;9.25;2.90;;;23.90;53.30;;;;;;5071829;28;20107;-65
2023/05/10 07:23:25;;;;;;;3.58;2.22;;;23.90;54.00;;;;;;5071719;28;20136;-65
2023/05/10 07:25:53;;;;;;;3.63;1.92;;;24.00;54.40;;;;;;5071868;28;20507;-66
2023/05/10 07:28:19;;;;;;;7.47;2.17;;;24.00;54.70;;;;;;5071641;28;20043;-65
2023/05/10 07:30:46;;;;;;;2.92;1.95;;;24.00;54.50;;;;;;5071495;28;20052;-66
2023/05/10 07:33:13;;;;;;;2.53;2.28;;;24.00;54.40;;;;;;5071354;28;20028;-66
2023/05/10 07:35:39;;;;;;;2.90;1.95;;;24.10;53.60;;;;;;5070253;28;20357;-66
2023/05/10 07:38:05;;;;;;;5.80;1.92;;;24.10;53.10;;;;;;5071732;28;20032;-68
2023/05/10 07:40:31;;;;;;;6.38;2.30;;;24.10;53.00;;;;;;5071063;28;20028;-66
2023/05/10 07:42:58;;;;;;;5.80;2.58;;;24.10;53.40;;;;;;5071366;28;20040;-65
2023/05/10 07:45:24;;;;;;;6.50;2.50;;;24.40;54.40;;;;;;5071190;28;20067;-65
2023/05/10 07:47:50;;;;;;;1.60;1.48;;;24.60;53.60;;;;;;5079350;28;20059;-65
2023/05/10 07:50:16;;;;;;;5.80;2.38;;;24.70;52.70;;;;;;5091491;28;20024;-66
2023/05/10 07:52:42;;;;;;;2.97;2.33;;;24.70;53.60;;;;;;5091566;28;20036;-66
2023/05/10 07:55:08;;;;;;;3.80;2.10;;;24.70;48.80;;;;;;5091670;28;20130;-66
2023/05/10 07:57:35;;;;;;;2.72;1.92;;;24.70;48.80;;;;;;5091516;28;20093;-65
2023/05/10 08:00:01;;;;;;;2.15;1.63;;;24.60;48.40;;;;;;5089958;28;20423;-65
2023/05/10 08:02:27;;;;;;;3.80;1.65;;;24.40;48.90;;;;;;5089561;28;20104;-65
2023/05/10 08:04:53;;;;;;;1.83;1.55;;;24.50;45.10;;;;;;5073301;28;20068;-65
2023/05/10 08:07:19;;;;;;;1.85;1.33;;;24.40;43.10;;;;;;5071326;28;20502;-65
2023/05/10 08:09:46;;;;;;;2.17;1.70;;;24.40;47.00;;;;;;5070823;28;20063;-65
2023/05/10 08:12:12;;;;;;;1.58;1.25;;;24.50;49.10;;;;;;5069695;28;20032;-66
2023/05/10 08:14:38;;;;;;;1.33;1.13;;;24.40;49.00;;;;;;5071085;28;20068;-65
2023/05/10 08:17:04;;;;;;;5.72;1.75;;;24.50;50.60;;;;;;5079324;28;20495;-65
2023/05/10 08:19:30;;;;;;;1.83;1.45;;;24.30;50.90;;;;;;5091327;28;20056;-66
2023/05/10 08:21:57;;;;;;;2.13;1.73;;;24.40;51.10;;;;;;5090986;28;20120;-66
2023/05/10 08:24:23;;;;;;;4.05;1.77;;;24.40;47.90;;;;;;5091099;28;20036;-66
2023/05/10 08:26:49;;;;;;;1.77;1.58;;;24.30;50.00;;;;;;5091314;28;20093;-65
2023/05/10 08:29:15;;;;;;;3.33;1.73;;;24.30;46.30;;;;;;5091146;28;20092;-66
2023/05/10 08:31:41;;;;;;;2.97;1.40;;;24.20;43.80;;;;;;5089637;28;20040;-65
2023/05/10 08:34:07;;;;;;;2.08;1.55;;;24.20;49.00;;;;;;5091153;28;20035;-65
2023/05/10 08:36:33;;;;;;;5.47;2.00;;;24.10;51.10;;;;;;5090755;28;20035;-65
2023/05/10 08:38:59;;;;;;;2.33;2.05;;;24.20;51.70;;;;;;5091062;28;20394;-65
2023/05/10 08:41:25;;;;;;;3.08;1.90;;;24.20;51.50;;;;;;5091487;28;20036;-65
2023/05/10 08:43:52;;;;;;;1.73;1.63;;;24.20;52.30;;;;;;5095160;28;20089;-66
2023/05/10 08:46:20;;;;;;;3.17;1.80;;;24.20;52.20;;;;;;5099237;28;20044;-65
2023/05/10 08:48:48;;;;;;;2.10;1.60;;;24.20;48.80;;;;;;5089901;28;20028;-66
2023/05/10 08:51:18;;;;;;;4.00;2.10;;;24.20;46.70;;;;;;5088486;28;20039;-65
2023/05/10 08:53:46;;;;;;;8.65;2.50;;;24.20;47.70;;;;;;5094724;28;20051;-65
2023/05/10 08:56:12;;;;;;;3.10;1.83;;;24.30;47.30;;;;;;5094953;28;20024;-64
2023/05/10 08:58:38;;;;;;;1.98;1.73;;;24.40;45.00;;;;;;5094927;28;20024;-65
2023/05/10 09:01:05;;;;;;;2.47;2.08;;;24.40;52.10;;;;;;5093672;28;20028;-65
2023/05/10 09:03:32;;;;;;;4.50;2.05;;;24.50;52.00;;;;;;5094709;28;20036;-65
2023/05/10 09:05:58;;;;;;;1.60;1.48;;;24.30;51.30;;;;;;5094770;28;20043;-65
2023/05/10 09:08:25;;;;;;;2.47;1.90;;;24.50;51.50;;;;;;5095004;28;20040;-63
2023/05/10 09:10:51;;;;;;;2.67;1.98;;;24.40;51.90;;;;;;5110606;28;20060;-64
2023/05/10 09:13:19;;;;;;;4.30;2.00;;;24.30;52.50;;;;;;5094472;28;20028;-65
2023/05/10 09:15:45;;;;;;;3.13;1.50;;;24.40;50.70;;;;;;5094512;28;20040;-65
2023/05/10 09:18:12;;;;;;;5.13;1.55;;;24.40;52.40;;;;;;5094627;28;20036;-65
2023/05/10 09:20:38;;;;;;;3.25;1.73;;;24.30;52.10;;;;;;5094422;28;20064;-67
2023/05/10 09:23:05;;;;;;;6.00;1.70;;;24.40;52.10;;;;;;5094395;28;20039;-66
2023/05/10 09:25:33;;;;;;;2.60;1.80;;;24.40;51.70;;;;;;5094233;28;20475;-66
2023/05/10 09:27:59;;;;;;;2.15;1.38;;;24.30;50.90;;;;;;5094265;28;20040;-66
2023/05/10 09:30:30;;;;;;;3.50;1.58;;;24.40;50.00;;;;;;5094539;28;20031;-66
2023/05/10 09:32:58;;;;;;;1.50;1.27;;;24.30;48.50;;;;;;5094169;28;20031;-67
2023/05/10 09:35:26;;;;;;;1.17;1.13;;;24.30;48.30;;;;;;5094391;28;20040;-65
2023/05/10 09:37:54;;;;;;;1.70;1.52;;;24.30;46.90;;;;;;5094283;28;20051;-65
2023/05/10 09:40:22;;;;;;;0.95;0.88;;;24.30;46.40;;;;;;5094041;28;20032;-65
2023/05/10 09:43:08;;;;;;;2.00;1.52;;;24.30;45.40;;;;;;5093850;28;20038;-63
2023/05/10 09:45:35;;;;;;;3.33;1.38;;;24.20;45.00;;;;;;5094002;28;20035;-65
2023/05/10 09:48:03;;;;;;;1.30;1.20;;;24.10;42.70;;;;;;5093839;28;20395;-65
2023/05/10 09:50:30;;;;;;;5.63;1.55;;;24.20;43.20;;;;;;5093776;28;20032;-66
2023/05/10 09:52:59;;;;;;;4.07;1.10;;;24.10;35.70;;;;;;5093775;28;20487;-65
2023/05/10 09:55:37;;;;;;;2.65;1.35;;;24.20;41.90;;;;;;5093804;28;20054;-65
2023/05/10 09:58:05;;;;;;;2.05;1.65;;;24.10;42.60;;;;;;5093725;28;20069;-68
2023/05/10 10:00:39;;;;;;;4.07;1.73;;;24.00;41.60;;;;;;5093187;28;20020;-66
2023/05/10 10:03:05;;;;;;;2.70;1.77;;;24.10;40.70;;;;;;5093329;28;20102;-65
2023/05/10 10:05:35;;;;;;;1.48;1.30;;;24.10;41.90;;;;;;5093480;28;20039;-66
2023/05/10 10:08:05;;;;;;;1.70;1.60;;;24.00;43.00;;;;;;5092343;28;20036;-65
2023/05/10 10:10:33;;;;;;;2.00;1.63;;;24.00;41.00;;;;;;5093530;28;20035;-64
2023/05/10 10:12:59;;;;;;;1.83;1.35;;;24.10;42.50;;;;;;5090077;28;20367;-64
2023/05/10 10:15:26;;;;;;;6.18;3.03;;;24.10;43.00;;;;;;5099969;28;20032;-66
2023/05/10 10:17:53;;;;;;;6.00;2.85;;;24.20;47.80;;;;;;5094566;28;20504;-64
2023/05/10 10:20:21;;;;;;;2.53;2.00;;;24.70;49.90;;;;;;5107825;28;20051;-66
2023/05/10 10:22:48;;;;;;;5.47;1.60;;;25.30;47.30;;;;;;5110679;28;20032;-65
2023/05/10 10:25:16;;;;;;;3.13;2.00;;;25.10;40.70;;;;;;5108446;27;20024;-66
2023/05/10 10:27:51;;;;;;;2.03;1.55;;;24.90;44.60;;;;;;5110013;28;20047;-66
2023/05/10 10:30:29;;;;;;;4.55;2.00;;;25.00;44.50;;;;;;5096105;28;20501;-66
2023/05/10 10:33:17;;;;;;;6.20;1.75;;;25.10;47.90;;;;;;5093985;28;20028;-65
2023/05/10 10:35:45;;;;;;;5.38;1.40;;;25.30;50.50;;;;;;5090128;28;20024;-65
2023/05/10 10:38:12;;;;;;;3.75;2.25;;;25.20;39.60;;;;;;5092986;28;20032;-66
2023/05/10 10:40:38;;;;;;;1.77;1.65;;;25.00;47.60;;;;;;5092735;28;20051;-65
2023/05/10 10:43:25;;;;;;;2.45;1.73;;;25.00;47.40;;;;;;5092726;28;20141;-64
2023/05/10 10:46:09;;;;;;;4.43;1.60;;;24.80;48.00;;;;;;5092957;28;20039;-66
2023/05/10 10:48:36;;;;;;;2.90;1.67;;;24.80;47.00;;;;;;5092644;28;20106;-65
2023/05/10 10:51:02;;;;;;;3.03;1.83;;;24.80;48.90;;;;;;5092665;28;20067;-64
2023/05/10 10:53:29;;;;;;;1.20;1.10;;;24.70;48.80;;;;;;5092421;28;20043;-66
2023/05/10 10:56:24;;;;;;;4.82;1.55;;;24.80;45.60;;;;;;5092277;28;20032;-66
2023/05/10 10:58:52;;;;;;;1.98;1.42;;;24.70;48.60;;;;;;5049728;28;20076;-66
2023/05/10 11:01:19;;;;;;;3.65;1.33;;;24.70;44.80;;;;;;5049683;28;20040;-67
2023/05/10 11:04:00;;;;;;;3.95;1.48;;;24.70;42.60;;;;;;5049776;28;20037;-66
2023/05/10 11:06:33;;;;;;;1.92;1.50;;;24.60;48.50;;;;;;5049816;28;20045;-66
2023/05/10 11:09:06;;;;;;;2.10;1.38;;;24.50;49.60;;;;;;5049550;28;20239;-66
2023/05/10 11:11:33;;;;;;;2.00;1.50;;;24.50;49.40;;;;;;5049835;28;20048;-66
2023/05/10 11:14:05;;;;;;;3.80;1.52;;;24.40;46.10;;;;;;5049266;28;20040;-66
2023/05/10 11:16:43;;;;;;;1.48;1.38;;;24.40;43.10;;;;;;5049219;28;20044;-66
2023/05/10 11:19:15;;;;;;;1.73;1.40;;;24.50;49.50;;;;;;5049196;28;20132;-66
2023/05/10 11:21:48;;;;;;;1.65;1.42;;;24.50;50.60;;;;;;5049439;28;20107;-67
2023/05/10 11:24:17;;;;;;;3.80;1.58;;;24.40;50.50;;;;;;5049425;28;20098;-67
2023/05/10 11:26:43;;;;;;;1.90;1.70;;;24.40;49.00;;;;;;5049461;28;20049;-67
2023/05/10 11:29:09;;;;;;;1.90;1.48;;;24.40;48.80;;;;;;5049163;28;20044;-66
2023/05/10 11:31:41;;;;;;;4.22;1.55;;;24.30;50.40;;;;;;5049553;28;20119;-64
2023/05/10 11:34:07;;;;;;;1.55;1.27;;;24.30;50.70;;;;;;5051005;28;20111;-65
2023/05/10 11:36:35;;;;;;;1.10;1.10;;;24.30;50.70;;;;;;5089441;28;20399;-66
2023/05/10 11:39:02;;;;;;;5.28;1.60;;;24.30;51.20;;;;;;5089371;28;20032;-64
2023/05/10 11:41:30;;;;;;;3.58;1.73;;;24.30;51.40;;;;;;5089407;28;20052;-66
2023/05/10 11:43:57;;;;;;;3.40;1.52;;;24.20;50.90;;;;;;5089075;28;20093;-65
2023/05/10 11:46:25;;;;;;;1.83;1.58;;;24.30;51.60;;;;;;5089465;28;20075;-66
2023/05/10 11:48:53;;;;;;;2.97;1.38;;;24.30;51.10;;;;;;5072478;28;20067;-65
2023/05/10 11:51:24;;;;;;;1.83;1.15;;;24.20;51.00;;;;;;5068989;28;20044;-65
2023/05/10 11:53:53;;;;;;;2.05;1.58;;;24.30;51.80;;;;;;5068906;28;20046;-65
2023/05/10 11:56:21;;;;;;;5.25;1.20;;;24.30;51.80;;;;;;5068984;28;20495;-66
2023/05/10 11:58:56;;;;;;;3.20;1.55;;;24.30;51.40;;;;;;5068819;28;20048;-65
2023/05/10 12:01:26;;;;;;;2.47;1.17;;;24.30;51.70;;;;;;5068732;28;20037;-66
2023/05/10 12:03:54;;;;;;;3.38;1.60;;;24.30;51.70;;;;;;5068616;28;20037;-64
2023/05/10 12:06:20;;;;;;;5.80;1.48;;;24.20;51.60;;;;;;5068669;28;20481;-65
2023/05/10 12:08:52;;;;;;;3.85;1.75;;;24.40;51.80;;;;;;5069797;28;20059;-65
2023/05/10 12:11:19;;;;;;;1.92;1.50;;;24.30;51.70;;;;;;5071075;28;20492;-65
2023/05/10 12:13:49;;;;;;;1.50;1.40;;;24.20;51.70;;;;;;5076869;28;20066;-65
2023/05/10 12:16:21;;;;;;;2.17;1.52;;;24.30;52.00;;;;;;5072942;28;20040;-65
2023/05/10 12:18:51;;;;;;;2.25;1.40;;;24.30;51.90;;;;;;5091321;28;20357;-65
2023/05/10 12:21:19;;;;;;;3.55;2.60;;;24.30;51.90;;;;;;5091031;28;20480;-66
2023/05/10 12:23:53;;;;;;;3.00;1.70;;;24.30;52.00;;;;;;5091185;28;20059;-65
2023/05/10 12:26:23;;;;;;;1.60;1.30;;;24.10;52.00;;;;;;5093870;28;20419;-65
2023/05/10 12:28:49;;;;;;;1.77;1.33;;;24.10;52.10;;;;;;5098078;28;20395;-65
2023/05/10 12:31:15;;;;;;;3.03;1.70;;;24.20;52.10;;;;;;5097783;28;20436;-65
2023/05/10 12:33:45;;;;;;;2.28;1.25;;;24.20;52.00;;;;;;5096079;28;20055;-66
2023/05/10 12:36:13;;;;;;;1.90;1.50;;;24.10;52.00;;;;;;5098038;28;20032;-66
2023/05/10 12:38:42;;;;;;;1.75;1.35;;;24.20;51.70;;;;;;5097828;28;20124;-68
2023/05/10 12:41:10;;;;;;;2.80;1.50;;;24.20;50.50;;;;;;5097669;28;20039;-65
2023/05/10 12:43:37;;;;;;;2.63;1.77;;;24.30;49.40;;;;;;5097495;28;20119;-65
2023/05/10 12:46:11;;;;;;;2.88;1.63;;;24.20;48.10;;;;;;5097863;28;20036;-64
2023/05/10 12:48:38;;;;;;;2.15;1.55;;;24.20;47.50;;;;;;5097729;28;20448;-64
2023/05/10 12:51:05;;;;;;;6.18;1.70;;;24.20;47.20;;;;;;5097807;28;20348;-64